This is the latest recevied weather packets stored in our database for station/object OE7DRT-13. If no packets are shown the sender has not sent any weather packets the latest 10 day(s).
| Time | Temp. | Humidity | Pressure | Rain* | Wind** | Luminosity | Snow |
|---|---|---|---|---|---|---|---|
| 1777774220 | 7.78° C | 66% | 1020 hPa | 0 mm | - | - | - |
| 1777773919 | 8.33° C | 65% | 1019.9 hPa | 0 mm | - | - | - |
| 1777772129 | 8.89° C | 60% | 1019.9 hPa | 0 mm | - | - | - |
| 1777770318 | 8.89° C | 61% | 1020.1 hPa | 0 mm | - | - | - |
| 1777770017 | 9.44° C | 59% | 1020 hPa | 0 mm | - | - | - |
| 1777769434 | 10° C | 54% | 1020 hPa | 0 mm | - | - | - |
| 1777768851 | 9.44° C | 55% | 1020 hPa | 0 mm | - | - | - |
| 1777766718 | 10.56° C | 52% | 1020.3 hPa | 0 mm | - | - | - |
| 1777762817 | 11.11° C | 50% | 1020.5 hPa | 0 mm | - | - | - |
| 1777761026 | 11.11° C | 52% | 1020.7 hPa | 0 mm | - | - | - |
| 1777760724 | 11.67° C | 52% | 1020.8 hPa | 0 mm | - | - | - |
| 1777760423 | 11.67° C | 51% | 1020.7 hPa | 0 mm | - | - | - |
| 1777758332 | 11.67° C | 52% | 1020.6 hPa | 0 mm | - | - | - |
| 1777758031 | 12.22° C | 51% | 1020.5 hPa | 0 mm | - | - | - |
| 1777755335 | 12.78° C | 49% | 1020.5 hPa | 0 mm | - | - | - |
| 1777755033 | 12.78° C | 49% | 1020.4 hPa | 0 mm | - | - | - |
| 1777753525 | 12.78° C | 47% | 1020.4 hPa | 0 mm | - | - | - |
| 1777752619 | 13.33° C | 49% | 1020.5 hPa | 0 mm | - | - | - |
| 1777751734 | 13.89° C | 45% | 1020.3 hPa | 0 mm | - | - | - |
| 1777750227 | 14.44° C | 44% | 1020 hPa | 0 mm | - | - | - |
| 1777749321 | 14.44° C | 44% | 1019.9 hPa | 0 mm | - | - | - |
| 1777745722 | 15° C | 48% | 1019.1 hPa | 0 mm | - | - | - |
| 1777745117 | 15° C | 49% | 1019.1 hPa | 0 mm | - | - | - |
| 1777743971 | 16.11° C | 45% | 1018.9 hPa | 0 mm | - | - | - |
| 1777743328 | 16.67° C | 43% | 1018.8 hPa | 0 mm | - | - | - |
* Rain latest hour (hover to see other rain measurements)
** Current wind speed in m/s (hover to see current wind gust speed)